createdAt,value
2018-09-01T00:00:43.150Z,96.75
2018-09-01T00:03:13.074Z,97.45
2018-09-01T00:05:42.950Z,97.10
2018-09-01T00:08:12.966Z,97.54
2018-09-01T00:10:42.994Z,97.31
2018-09-01T00:13:12.812Z,97.57
2018-09-01T00:15:42.748Z,97.66
2018-09-01T00:18:12.703Z,97.95
2018-09-01T00:20:42.658Z,98.07
2018-09-01T00:23:12.556Z,98.23
2018-09-01T00:25:42.666Z,97.97
2018-09-01T00:28:12.611Z,97.88
2018-09-01T00:30:43.275Z,98.30
2018-09-01T00:33:13.309Z,98.02
2018-09-01T00:35:43.181Z,98.21
2018-09-01T00:38:18.488Z,98.06
2018-09-01T00:40:48.415Z,98.32
2018-09-01T00:43:18.923Z,98.24
2018-09-01T00:45:49.015Z,97.94
2018-09-01T00:48:19.027Z,97.66
2018-09-01T00:50:49.882Z,98.05
2018-09-01T00:53:20.080Z,98.02
2018-09-01T00:55:49.862Z,97.82
2018-09-01T00:58:20.355Z,98.16
2018-09-01T01:00:50.217Z,98.09
2018-09-01T01:03:20.418Z,98.36
2018-09-01T01:05:50.321Z,97.78
2018-09-01T01:08:20.176Z,98.33
2018-09-01T01:10:50.039Z,98.00
2018-09-01T01:13:19.980Z,98.76
2018-09-01T01:15:50.283Z,98.57
2018-09-01T01:18:20.122Z,98.18
2018-09-01T01:20:50.369Z,98.17
2018-09-01T01:23:20.444Z,97.96
2018-09-01T01:25:50.293Z,98.31
2018-09-01T01:28:20.285Z,97.83
2018-09-01T01:30:50.354Z,98.01
2018-09-01T01:33:20.123Z,97.80
2018-09-01T01:35:49.930Z,98.06
2018-09-01T01:38:19.879Z,97.55
2018-09-01T01:40:49.851Z,97.80
2018-09-01T01:43:19.736Z,97.83
2018-09-01T01:45:49.959Z,97.68
2018-09-01T01:48:19.931Z,98.01
2018-09-01T01:50:49.771Z,97.82
2018-09-01T01:53:19.670Z,97.74
2018-09-01T01:58:27.523Z,97.83
2018-09-01T02:00:57.235Z,97.55
2018-09-01T02:03:27.073Z,97.45
2018-09-01T02:05:56.861Z,97.76
2018-09-01T02:08:26.699Z,97.95
2018-09-01T02:10:56.601Z,98.08
2018-09-01T02:13:26.443Z,97.90
2018-09-01T02:15:56.250Z,98.36
2018-09-01T02:18:26.431Z,98.17
2018-09-01T02:20:56.963Z,97.74
2018-09-01T02:23:26.863Z,98.03
2018-09-01T02:25:56.741Z,97.77
2018-09-01T02:28:26.925Z,97.93
2018-09-01T02:30:57.551Z,98.06
2018-09-01T02:33:27.641Z,98.29
2018-09-01T02:35:57.590Z,98.19
2018-09-01T02:38:27.716Z,97.63
2018-09-01T02:40:57.563Z,97.78
2018-09-01T02:43:27.364Z,98.08
2018-09-01T02:45:57.585Z,97.69
2018-09-01T02:48:28.291Z,97.63
2018-09-01T02:50:58.085Z,97.38
2018-09-01T02:53:27.995Z,97.62
2018-09-01T02:55:57.801Z,98.09
2018-09-01T02:58:27.649Z,97.78
2018-09-01T03:01:02.665Z,97.51
2018-09-01T03:03:32.649Z,97.76
2018-09-01T03:06:02.577Z,97.95
2018-09-01T03:08:32.437Z,98.24
2018-09-01T03:11:02.516Z,98.17
2018-09-01T03:13:32.559Z,98.80
2018-09-01T03:16:02.427Z,98.32
2018-09-01T03:18:33.020Z,99.01
2018-09-01T03:21:02.973Z,98.93
2018-09-01T03:23:32.876Z,99.34
2018-09-01T03:26:02.737Z,99.66
2018-09-01T03:28:32.636Z,99.37
2018-09-01T03:31:02.874Z,99.52
2018-09-01T03:33:33.962Z,99.92
2018-09-01T03:36:03.808Z,100.00
2018-09-01T03:38:34.031Z,100.00
2018-09-01T03:41:03.909Z,100.00
2018-09-01T03:43:33.743Z,100.00
2018-09-01T03:46:03.576Z,100.00
2018-09-01T03:48:33.398Z,100.00
2018-09-01T03:51:03.238Z,100.00
2018-09-01T03:53:32.978Z,100.00
2018-09-01T03:56:02.824Z,100.00
2018-09-01T03:58:32.690Z,100.00
2018-09-01T04:01:02.460Z,100.00
2018-09-01T04:03:32.324Z,100.00
2018-09-01T04:06:02.278Z,100.00
2018-09-01T04:08:32.103Z,100.00
2018-09-01T04:11:01.938Z,100.00
2018-09-01T04:13:31.759Z,100.00
2018-09-01T04:16:01.924Z,100.00
2018-09-01T04:18:31.812Z,100.00
2018-09-01T04:21:01.865Z,100.00
2018-09-01T04:23:31.638Z,100.00
2018-09-01T04:26:01.414Z,100.00
2018-09-01T04:28:31.270Z,100.00
2018-09-01T04:31:01.244Z,100.00
2018-09-01T04:33:31.050Z,100.00
2018-09-01T04:36:00.803Z,100.00
2018-09-01T04:38:30.546Z,100.00
2018-09-01T04:41:00.721Z,100.00
2018-09-01T04:43:30.578Z,100.00
2018-09-01T04:46:00.368Z,100.00
2018-09-01T04:48:30.188Z,100.00
2018-09-01T04:51:00.015Z,100.00
2018-09-01T04:53:29.756Z,100.00
2018-09-01T04:55:59.574Z,100.00
2018-09-01T04:58:29.736Z,100.00
2018-09-01T05:00:59.675Z,100.00
2018-09-01T05:03:29.871Z,100.00
2018-09-01T05:05:59.699Z,100.00
2018-09-01T05:08:29.487Z,100.00
2018-09-01T05:10:59.341Z,100.00
2018-09-01T05:13:29.173Z,100.00
2018-09-01T05:15:58.977Z,100.00
2018-09-01T05:18:28.731Z,100.00
2018-09-01T05:20:58.575Z,100.00
2018-09-01T05:23:28.534Z,100.00
2018-09-01T05:25:58.313Z,100.00
2018-09-01T05:28:28.249Z,100.00
2018-09-01T05:30:58.031Z,100.00
2018-09-01T05:33:27.907Z,100.00
2018-09-01T05:35:57.701Z,100.00
2018-09-01T05:38:27.523Z,100.00
2018-09-01T05:40:57.310Z,100.00
2018-09-01T05:43:27.532Z,100.00
2018-09-01T05:45:57.385Z,100.00
2018-09-01T05:48:27.219Z,100.00
2018-09-01T05:50:57.021Z,100.00
2018-09-01T05:53:26.800Z,100.00
2018-09-01T05:55:56.566Z,100.00
2018-09-01T05:58:26.393Z,99.79
2018-09-01T06:00:56.517Z,99.96
2018-09-01T06:03:26.313Z,99.78
2018-09-01T06:05:56.061Z,99.86
2018-09-01T06:08:26.058Z,99.57
2018-09-01T06:10:55.908Z,99.40
2018-09-01T06:13:26.092Z,99.50
2018-09-01T06:15:55.847Z,99.35
2018-09-01T06:18:25.695Z,99.04
2018-09-01T06:20:55.857Z,98.93
2018-09-01T06:23:25.959Z,99.00
2018-09-01T06:25:56.090Z,99.03
2018-09-01T06:28:32.181Z,98.61
2018-09-01T06:31:02.036Z,99.39
2018-09-01T06:33:32.161Z,99.01
2018-09-01T06:36:02.109Z,98.87
2018-09-01T06:38:31.927Z,98.59
2018-09-01T06:41:01.755Z,98.50
2018-09-01T06:43:31.949Z,97.69
2018-09-01T06:46:01.839Z,98.08
2018-09-01T06:48:31.738Z,97.66
2018-09-01T06:51:01.572Z,97.79
2018-09-01T06:53:31.406Z,97.42
2018-09-01T06:56:01.253Z,96.99
2018-09-01T06:58:31.082Z,96.68
2018-09-01T07:01:01.070Z,97.04
2018-09-01T07:03:30.888Z,96.37
2018-09-01T07:06:01.015Z,95.85
2018-09-01T07:08:31.165Z,96.56
2018-09-01T07:11:01.312Z,96.44
2018-09-01T07:17:07.807Z,96.79
2018-09-01T07:19:37.685Z,96.94
2018-09-01T07:22:07.872Z,95.62
2018-09-01T07:24:37.791Z,96.11
2018-09-01T07:27:07.905Z,95.05
2018-09-01T07:29:37.871Z,95.10
2018-09-01T07:32:07.743Z,94.48
2018-09-01T07:34:37.596Z,93.38
2018-09-01T07:37:07.861Z,94.20
2018-09-01T07:39:38.636Z,93.43
2018-09-01T07:42:08.514Z,93.20
2018-09-01T07:44:38.400Z,92.83
2018-09-01T07:47:08.324Z,92.37
2018-09-01T07:49:38.184Z,93.24
2018-09-01T07:52:08.442Z,93.22
2018-09-01T07:54:38.329Z,93.08
2018-09-01T07:57:08.352Z,91.91
2018-09-01T07:59:38.186Z,92.07
2018-09-01T08:02:08.158Z,91.07
2018-09-01T08:04:37.970Z,91.43
2018-09-01T08:07:08.335Z,91.71
2018-09-01T08:09:38.144Z,91.71
2018-09-01T08:12:08.992Z,91.97
2018-09-01T08:14:38.798Z,92.23
2018-09-01T08:17:08.874Z,91.68
2018-09-01T08:19:38.702Z,91.66
2018-09-01T08:22:08.744Z,91.61
2018-09-01T08:24:39.200Z,90.86
2018-09-01T08:27:09.064Z,90.70
2018-09-01T08:29:39.183Z,91.12
2018-09-01T08:32:09.400Z,90.24
2018-09-01T08:34:39.243Z,90.50
2018-09-01T08:37:09.196Z,89.75
2018-09-01T08:39:38.993Z,90.18
2018-09-01T08:42:08.924Z,89.65
2018-09-01T08:44:38.985Z,89.51
2018-09-01T08:47:08.832Z,89.41
2018-09-01T08:49:38.634Z,90.12
2018-09-01T08:52:08.481Z,90.03
2018-09-01T08:54:38.268Z,90.24
2018-09-01T08:57:08.471Z,89.61
2018-09-01T08:59:38.288Z,89.23
2018-09-01T09:02:08.114Z,89.35
2018-09-01T09:04:37.944Z,89.35
2018-09-01T09:07:08.484Z,89.51
2018-09-01T09:09:38.360Z,90.14
2018-09-01T09:12:08.243Z,90.43
2018-09-01T09:14:38.119Z,90.53
2018-09-01T09:17:08.006Z,90.93
2018-09-01T09:19:37.834Z,90.97
2018-09-01T09:22:07.756Z,91.53
2018-09-01T09:24:37.673Z,91.76
2018-09-01T09:27:07.980Z,91.32
2018-09-01T09:29:37.802Z,91.67
2018-09-01T09:32:07.986Z,91.80
2018-09-01T09:34:37.894Z,90.51
2018-09-01T09:37:07.812Z,91.78
2018-09-01T09:39:37.648Z,91.78
2018-09-01T09:42:07.487Z,92.08
2018-09-01T09:44:37.376Z,92.94
2018-09-01T09:47:07.504Z,92.84
2018-09-01T09:49:37.304Z,93.05
2018-09-01T09:52:07.120Z,92.55
2018-09-01T09:54:36.989Z,93.28
2018-09-01T09:57:07.424Z,92.98
2018-09-01T09:59:37.370Z,94.29
2018-09-01T10:02:07.168Z,95.07
2018-09-01T10:04:37.309Z,95.24
2018-09-01T10:07:07.142Z,95.64
2018-09-01T10:09:37.223Z,96.48
2018-09-01T10:12:07.045Z,96.97
2018-09-01T10:14:36.915Z,97.26
2018-09-01T10:17:06.759Z,97.88
2018-09-01T10:19:36.787Z,98.45
2018-09-01T10:22:06.665Z,98.95
2018-09-01T10:24:36.469Z,98.94
2018-09-01T10:27:06.445Z,98.86
2018-09-01T10:29:36.399Z,99.67
2018-09-01T10:32:06.761Z,99.75
2018-09-01T10:34:36.549Z,99.87
2018-09-01T10:37:06.416Z,100.00
2018-09-01T10:39:36.238Z,100.00
2018-09-01T10:42:06.498Z,100.00
2018-09-01T10:44:36.327Z,99.35
2018-09-01T10:47:06.207Z,98.87
2018-09-01T10:49:36.031Z,97.99
2018-09-01T10:52:05.943Z,98.26
2018-09-01T10:54:35.747Z,98.06
2018-09-01T10:57:05.891Z,97.94
2018-09-01T10:59:35.811Z,97.08
2018-09-01T11:02:06.163Z,98.05
2018-09-01T11:04:36.327Z,97.75
2018-09-01T11:07:06.491Z,96.95
2018-09-01T11:09:36.412Z,96.40
2018-09-01T11:12:06.535Z,95.96
2018-09-01T11:14:36.582Z,94.32
2018-09-01T11:17:07.354Z,92.46
2018-09-01T11:19:37.286Z,92.02
2018-09-01T11:22:07.146Z,92.30
2018-09-01T11:24:37.034Z,90.91
2018-09-01T11:27:06.938Z,88.45
2018-09-01T11:29:37.052Z,89.45
2018-09-01T11:32:07.430Z,87.65
2018-09-01T11:34:37.508Z,86.59
2018-09-01T11:37:07.577Z,87.61
2018-09-01T11:39:37.360Z,86.24
2018-09-01T11:42:07.568Z,87.43
2018-09-01T11:44:37.859Z,86.43
2018-09-01T11:47:07.731Z,84.83
2018-09-01T11:49:37.543Z,83.01
2018-09-01T11:52:07.380Z,84.45
2018-09-01T11:54:37.377Z,85.01
2018-09-01T11:57:07.189Z,84.69
2018-09-01T11:59:37.102Z,85.36
2018-09-01T12:02:07.141Z,83.52
2018-09-01T12:04:37.203Z,83.42
2018-09-01T12:07:07.213Z,83.48
2018-09-01T12:09:37.062Z,83.99
2018-09-01T12:12:06.911Z,84.22
2018-09-01T12:14:36.969Z,81.65
2018-09-01T12:17:06.983Z,82.04
2018-09-01T12:19:36.795Z,83.07
2018-09-01T12:22:06.793Z,83.77
2018-09-01T12:24:36.737Z,84.10
2018-09-01T12:27:06.913Z,85.00
2018-09-01T12:29:36.702Z,84.95
2018-09-01T12:32:07.068Z,84.83
2018-09-01T12:34:36.903Z,85.56
2018-09-01T12:37:06.740Z,84.21
2018-09-01T12:39:36.584Z,85.06
2018-09-01T12:42:06.458Z,84.58
2018-09-01T12:44:36.488Z,83.47
2018-09-01T12:47:06.302Z,83.49
2018-09-01T12:49:36.076Z,83.75
2018-09-01T12:52:06.048Z,82.13
2018-09-01T12:54:36.012Z,81.85
2018-09-01T12:57:05.769Z,83.02
2018-09-01T12:59:35.648Z,83.08
2018-09-01T13:02:05.506Z,83.59
2018-09-01T13:04:35.480Z,83.85
2018-09-01T13:07:05.611Z,84.43
2018-09-01T13:09:35.380Z,84.69
2018-09-01T13:12:05.170Z,84.86
2018-09-01T13:14:34.964Z,84.72
2018-09-01T13:17:04.812Z,84.49
2018-09-01T13:19:34.620Z,85.44
2018-09-01T13:22:04.699Z,85.55
2018-09-01T13:24:34.477Z,85.12
2018-09-01T13:27:04.342Z,83.79
2018-09-01T13:29:34.169Z,83.34
2018-09-01T13:32:04.067Z,83.88
2018-09-01T13:34:33.916Z,82.09
2018-09-01T13:37:03.945Z,82.75
2018-09-01T13:39:33.783Z,82.88
2018-09-01T13:42:03.997Z,82.10
2018-09-01T13:44:34.157Z,82.06
2018-09-01T13:47:04.437Z,82.15
2018-09-01T13:49:34.367Z,82.12
2018-09-01T13:52:05.086Z,81.66
2018-09-01T13:54:35.837Z,82.41
2018-09-01T13:57:05.898Z,82.49
2018-09-01T13:59:35.798Z,82.76
2018-09-01T14:02:05.776Z,83.08
2018-09-01T14:04:35.573Z,83.10
2018-09-01T14:07:05.588Z,82.70
2018-09-01T14:09:35.646Z,82.45
2018-09-01T14:12:05.633Z,82.46
2018-09-01T14:14:35.811Z,82.42
2018-09-01T14:17:06.340Z,82.20
2018-09-01T14:19:36.200Z,82.29
2018-09-01T14:22:06.464Z,82.30
2018-09-01T14:24:36.286Z,82.39
2018-09-01T14:27:06.188Z,82.29
2018-09-01T14:29:36.018Z,82.71
2018-09-01T14:32:05.930Z,82.42
2018-09-01T14:34:35.794Z,82.46
2018-09-01T14:37:06.740Z,82.68
2018-09-01T14:39:36.790Z,82.91
2018-09-01T14:42:06.909Z,82.75
2018-09-01T14:44:36.728Z,81.75
2018-09-01T14:47:07.068Z,81.94
2018-09-01T14:49:37.271Z,82.25
2018-09-01T14:52:07.287Z,82.48
2018-09-01T14:54:37.070Z,82.21
2018-09-01T14:57:06.972Z,83.10
2018-09-01T14:59:36.841Z,83.08
2018-09-01T15:02:07.125Z,83.28
2018-09-01T15:04:36.876Z,84.15
2018-09-01T15:07:07.089Z,84.22
2018-09-01T15:09:36.871Z,83.87
2018-09-01T15:12:06.915Z,84.05
2018-09-01T15:14:37.006Z,83.82
2018-09-01T15:17:06.891Z,83.42
2018-09-01T15:19:36.708Z,82.48
2018-09-01T15:22:06.544Z,82.42
2018-09-01T15:24:36.320Z,82.95
2018-09-01T15:27:06.174Z,81.81
2018-09-01T15:29:36.050Z,81.64
2018-09-01T15:32:05.974Z,81.51
2018-09-01T15:34:35.826Z,82.18
2018-09-01T15:37:05.696Z,82.58
2018-09-01T15:39:35.595Z,82.73
2018-09-01T15:42:05.439Z,82.79
2018-09-01T15:44:35.315Z,82.38
2018-09-01T15:47:05.271Z,82.82
2018-09-01T15:49:35.089Z,80.89
2018-09-01T15:52:04.852Z,81.15
2018-09-01T15:54:34.705Z,81.84
2018-09-01T15:57:04.963Z,81.93
2018-09-01T15:59:34.781Z,82.15
2018-09-01T16:02:04.611Z,82.82
2018-09-01T16:04:34.789Z,82.98
2018-09-01T16:07:04.681Z,82.59
2018-09-01T16:09:34.499Z,82.73
2018-09-01T16:12:04.926Z,81.64
2018-09-01T16:14:34.923Z,81.96
2018-09-01T16:17:04.859Z,80.99
2018-09-01T16:19:34.663Z,81.58
2018-09-01T16:22:04.898Z,80.50
2018-09-01T16:24:34.730Z,80.38
2018-09-01T16:27:04.720Z,80.19
2018-09-01T16:29:34.856Z,81.12
2018-09-01T16:32:04.722Z,81.00
2018-09-01T16:34:34.727Z,81.84
2018-09-01T16:37:04.978Z,82.67
2018-09-01T16:39:34.782Z,82.87
2018-09-01T16:42:04.567Z,83.42
2018-09-01T16:44:34.685Z,83.37
2018-09-01T16:47:04.979Z,83.71
2018-09-01T16:49:35.717Z,84.03
2018-09-01T16:52:05.548Z,83.67
2018-09-01T16:54:35.499Z,83.57
2018-09-01T16:57:05.589Z,83.18
2018-09-01T16:59:35.419Z,83.66
2018-09-01T17:02:05.199Z,83.05
2018-09-01T17:04:34.995Z,83.15
2018-09-01T17:07:04.815Z,83.24
2018-09-01T17:09:35.217Z,82.28
2018-09-01T17:12:05.479Z,83.36
2018-09-01T17:14:35.246Z,83.82
2018-09-01T17:17:05.147Z,83.72
2018-09-01T17:19:34.945Z,82.72
2018-09-01T17:22:04.864Z,83.75
2018-09-01T17:24:34.631Z,84.37
2018-09-01T17:27:04.815Z,84.69
2018-09-01T17:29:34.669Z,85.16
2018-09-01T17:32:04.512Z,85.08
2018-09-01T17:34:34.293Z,85.80
2018-09-01T17:37:04.075Z,86.23
2018-09-01T17:39:33.957Z,86.07
2018-09-01T17:42:03.744Z,85.80
2018-09-01T17:44:33.558Z,85.32
2018-09-01T17:47:03.417Z,85.35
2018-09-01T17:49:33.313Z,85.38
2018-09-01T17:52:03.192Z,82.13
2018-09-01T17:54:33.032Z,82.48
2018-09-01T17:57:02.913Z,82.99
2018-09-01T17:59:32.707Z,82.56
2018-09-01T18:02:02.606Z,83.40
2018-09-01T18:04:32.637Z,83.55
2018-09-01T18:07:02.451Z,82.34
2018-09-01T18:09:32.317Z,82.47
2018-09-01T18:12:02.103Z,82.87
2018-09-01T18:14:31.899Z,83.21
2018-09-01T18:17:01.699Z,83.83
2018-09-01T18:19:32.064Z,83.54
2018-09-01T18:22:02.098Z,84.00
2018-09-01T18:24:31.931Z,84.05
2018-09-01T18:27:01.729Z,84.20
2018-09-01T18:29:31.744Z,83.65
2018-09-01T18:32:02.028Z,83.62
2018-09-01T18:34:31.939Z,83.67
2018-09-01T18:37:01.929Z,84.53
2018-09-01T18:39:31.813Z,84.63
2018-09-01T18:42:01.671Z,85.32
2018-09-01T18:44:32.192Z,85.45
2018-09-01T18:47:02.210Z,85.95
2018-09-01T18:49:32.087Z,85.59
2018-09-01T18:52:01.847Z,85.62
2018-09-01T18:54:31.624Z,84.98
2018-09-01T18:57:02.020Z,85.11
2018-09-01T18:59:31.890Z,85.35
2018-09-01T19:02:01.879Z,85.73
2018-09-01T19:04:31.952Z,85.92
2018-09-01T19:07:01.813Z,85.44
2018-09-01T19:09:31.604Z,85.08
2018-09-01T19:12:01.483Z,85.31
2018-09-01T19:14:32.028Z,85.41
2018-09-01T19:17:02.387Z,84.85
2018-09-01T19:19:32.824Z,84.42
2018-09-01T19:22:02.644Z,84.64
2018-09-01T19:24:32.523Z,84.67
2018-09-01T19:27:02.470Z,85.18
2018-09-01T19:29:32.542Z,85.00
2018-09-01T19:32:02.750Z,82.61
2018-09-01T19:34:32.646Z,83.62
2018-09-01T19:37:02.635Z,83.99
2018-09-01T19:39:32.474Z,84.24
2018-09-01T19:42:02.338Z,84.92
2018-09-01T19:44:32.232Z,85.27
2018-09-01T19:47:02.287Z,85.51
2018-09-01T19:49:32.382Z,85.18
2018-09-01T19:52:02.230Z,85.77
2018-09-01T19:54:32.148Z,85.68
2018-09-01T19:57:02.090Z,85.80
2018-09-01T19:59:32.112Z,86.40
2018-09-01T20:02:02.223Z,86.96
2018-09-01T20:04:32.371Z,87.43
2018-09-01T20:07:02.307Z,87.76
2018-09-01T20:09:32.168Z,88.15
2018-09-01T20:12:02.054Z,88.47
2018-09-01T20:14:32.104Z,88.92
2018-09-01T20:17:02.058Z,89.08
2018-09-01T20:19:31.960Z,88.57
2018-09-01T20:22:01.813Z,89.00
2018-09-01T20:24:31.670Z,89.26
2018-09-01T20:27:01.834Z,90.21
2018-09-01T20:29:32.238Z,89.85
2018-09-01T20:32:02.363Z,90.69
2018-09-01T20:34:32.604Z,90.68
2018-09-01T20:37:02.431Z,90.72
2018-09-01T20:39:32.217Z,91.18
2018-09-01T20:42:02.069Z,90.66
2018-09-01T20:44:31.880Z,91.00
2018-09-01T20:47:01.944Z,90.56
2018-09-01T20:49:31.731Z,89.37
2018-09-01T20:52:02.004Z,88.97
2018-09-01T20:54:32.029Z,89.18
2018-09-01T20:57:02.003Z,87.39
2018-09-01T20:59:31.837Z,87.78
2018-09-01T21:02:01.833Z,87.52
2018-09-01T21:04:31.895Z,87.42
2018-09-01T21:07:01.913Z,86.46
2018-09-01T21:09:31.779Z,86.68
2018-09-01T21:12:01.690Z,86.77
2018-09-01T21:14:31.499Z,86.75
2018-09-01T21:17:01.973Z,86.86
2018-09-01T21:19:31.955Z,87.25
2018-09-01T21:22:01.751Z,87.72
2018-09-01T21:24:32.028Z,88.74
2018-09-01T21:27:01.953Z,89.32
2018-09-01T21:29:31.819Z,90.08
2018-09-01T21:32:01.606Z,89.71
2018-09-01T21:34:31.365Z,89.69
2018-09-01T21:37:01.279Z,89.96
2018-09-01T21:39:31.137Z,90.37
2018-09-01T21:42:01.277Z,89.76
2018-09-01T21:44:31.435Z,90.60
2018-09-01T21:47:01.712Z,91.16
2018-09-01T21:49:31.520Z,90.99
2018-09-01T21:52:01.897Z,91.45
2018-09-01T21:54:31.785Z,92.50
2018-09-01T21:57:01.640Z,92.54
2018-09-01T21:59:31.735Z,92.99
2018-09-01T22:02:06.729Z,92.99
2018-09-01T22:04:41.680Z,93.30
2018-09-01T22:07:11.637Z,93.48
2018-09-01T22:09:41.426Z,93.28
2018-09-01T22:12:11.754Z,93.44
2018-09-01T22:14:41.556Z,94.20
2018-09-01T22:17:11.391Z,94.35
2018-09-01T22:19:41.812Z,94.47
2018-09-01T22:22:11.984Z,94.65
2018-09-01T22:24:41.827Z,94.86
2018-09-01T22:27:11.752Z,95.33
2018-09-01T22:29:41.533Z,95.51
2018-09-01T22:32:11.337Z,96.05
2018-09-01T22:34:41.175Z,96.43
2018-09-01T22:37:11.267Z,96.19
2018-09-01T22:39:41.037Z,96.06
2018-09-01T22:42:10.919Z,95.72
2018-09-01T22:44:41.075Z,95.36
2018-09-01T22:47:16.328Z,93.86
2018-09-01T22:49:46.419Z,93.11
2018-09-01T22:52:16.229Z,92.95
2018-09-01T22:54:46.129Z,92.92
2018-09-01T22:57:15.918Z,93.22
2018-09-01T22:59:45.707Z,93.92
2018-09-01T23:02:15.580Z,93.63
2018-09-01T23:04:45.493Z,93.58
2018-09-01T23:07:15.337Z,94.14
2018-09-01T23:09:45.127Z,94.56
2018-09-01T23:12:14.880Z,94.86
2018-09-01T23:14:44.667Z,94.94
2018-09-01T23:17:14.473Z,95.07
2018-09-01T23:19:44.352Z,95.64
2018-09-01T23:22:14.385Z,95.86
2018-09-01T23:24:44.185Z,96.25
2018-09-01T23:27:14.438Z,96.17
2018-09-01T23:29:44.609Z,96.80
2018-09-01T23:32:14.773Z,96.79
2018-09-01T23:34:44.672Z,97.35
2018-09-01T23:37:14.539Z,97.23
2018-09-01T23:39:44.731Z,97.86
2018-09-01T23:42:14.556Z,97.70
2018-09-01T23:44:44.454Z,98.15
2018-09-01T23:47:14.279Z,98.50
2018-09-01T23:49:44.347Z,98.64
2018-09-01T23:52:14.523Z,98.79
2018-09-01T23:54:44.750Z,98.88
2018-09-01T23:57:14.873Z,98.81
2018-09-01T23:59:44.806Z,99.16
